Time;durP1;ratioP1;P1;durP2;ratioP2;P2;SDS_P1;SDS_P2;PMS_P1;PMS_P2;Temp;Humidity;BMP_temperature;BMP_pressure;BME280_temperature;BME280_humidity;BME280_pressure;Samples;Min_cycle;Max_cycle;Signal;HPM_P1;HPM_P2
2023/12/30 00:01:50;;;;;;;;;;;9.60;85.90;;;;;;5104976;28;19928;-70
2023/12/30 00:04:23;;;;;;;;;;;9.60;85.90;;;;;;5108468;28;19928;-62
2023/12/30 00:06:57;;;;;;;;;;;9.60;86.00;;;;;;5107973;28;20282;-63
2023/12/30 00:09:31;;;;;;;;;;;9.60;86.10;;;;;;5108130;28;19928;-62
2023/12/30 00:12:04;;;;;;;;;;;9.50;86.50;;;;;;5106627;28;19930;-63
2023/12/30 00:14:38;;;;;;;;;;;9.50;86.70;;;;;;5107786;28;19930;-62
2023/12/30 00:17:17;;;;;;;;;;;9.50;86.80;;;;;;5109529;28;19969;-62
2023/12/30 00:19:53;;;;;;;;;;;9.50;86.90;;;;;;5107730;27;19932;-62
2023/12/30 00:22:27;;;;;;;;;;;9.50;87.00;;;;;;5107489;28;20011;-62
2023/12/30 00:25:01;;;;;;;;;;;9.50;87.10;;;;;;5108338;28;19976;-62
2023/12/30 00:27:34;;;;;;;;;;;9.50;87.10;;;;;;5089092;27;20343;-61
2023/12/30 00:30:08;;;;;;;;;;;9.50;87.10;;;;;;5090510;27;19954;-61
2023/12/30 00:32:41;;;;;;;;;;;9.50;87.10;;;;;;5082469;28;19977;-61
2023/12/30 00:35:14;;;;;;;;;;;9.40;87.00;;;;;;5092707;27;20282;-63
2023/12/30 00:37:48;;;;;;;;;;;9.40;87.00;;;;;;5091728;28;20370;-63
2023/12/30 00:40:22;;;;;;;;;;;9.40;87.00;;;;;;5106323;28;19924;-65
2023/12/30 00:42:55;;;;;;;;;;;9.40;87.10;;;;;;5108190;28;19935;-62
2023/12/30 00:45:29;;;;;;;;;;;9.40;87.00;;;;;;5107585;28;20329;-62
2023/12/30 00:47:56;;;;;;;;;;;9.40;87.00;;;;;;5090692;28;19928;-62
2023/12/30 00:50:30;;;;;;;;;;;9.40;87.00;;;;;;5084710;28;20306;-62
2023/12/30 00:53:04;;;;;;;;;;;9.40;87.00;;;;;;5080246;28;19932;-61
2023/12/30 00:55:38;;;;;;;;;;;9.40;86.90;;;;;;5098324;28;19931;-62
2023/12/30 00:58:11;;;;;;;;;;;9.40;86.90;;;;;;5111347;28;19934;-60
2023/12/30 01:00:44;;;;;;;;;;;9.40;86.90;;;;;;5110607;28;19932;-61
2023/12/30 01:03:17;;;;;;;;;;;9.40;86.90;;;;;;5110988;28;19935;-63
2023/12/30 01:05:52;;;;;;;;;;;9.40;86.90;;;;;;5112660;27;19923;-61
2023/12/30 01:08:26;;;;;;;;;;;9.40;86.80;;;;;;5111813;28;19924;-61
2023/12/30 01:11:07;;;;;;;;;;;9.40;86.80;;;;;;5109995;28;20386;-62
2023/12/30 01:13:40;;;;;;;;;;;9.40;86.70;;;;;;5093653;28;19928;-67
2023/12/30 01:16:15;;;;;;;;;;;9.30;86.80;;;;;;5094305;28;19924;-66
2023/12/30 01:18:48;;;;;;;;;;;9.30;86.80;;;;;;5112847;28;19931;-67
2023/12/30 01:21:21;;;;;;;;;;;9.20;86.70;;;;;;5108827;28;19931;-67
2023/12/30 01:23:56;;;;;;;;;;;9.30;86.70;;;;;;5090704;28;19928;-67
2023/12/30 01:26:23;;;;;;;;;;;9.20;86.70;;;;;;5099179;28;19932;-68
2023/12/30 01:28:57;;;;;;;;;;;9.20;86.70;;;;;;5087648;28;19930;-67
2023/12/30 01:31:30;;;;;;;;;;;9.20;86.60;;;;;;5088315;28;19932;-66
2023/12/30 01:34:03;;;;;;;;;;;9.20;86.50;;;;;;5111339;28;19934;-67
2023/12/30 01:36:36;;;;;;;;;;;9.20;86.50;;;;;;5109849;28;19923;-65
2023/12/30 01:39:10;;;;;;;;;;;9.20;86.40;;;;;;5087824;28;19946;-66
2023/12/30 01:41:44;;;;;;;;;;;9.10;86.40;;;;;;5092944;28;19936;-67
2023/12/30 01:44:17;;;;;;;;;;;9.10;86.50;;;;;;5108985;27;19928;-67
2023/12/30 01:46:50;;;;;;;;;;;9.10;86.40;;;;;;5085113;28;20419;-67
2023/12/30 01:49:23;;;;;;;;;;;9.10;86.40;;;;;;5108212;28;19927;-67
2023/12/30 01:51:50;;;;;;;;;;;9.00;86.40;;;;;;5093552;28;19927;-67
2023/12/30 01:54:24;;;;;;;;;;;9.00;86.40;;;;;;5109001;28;20420;-67
2023/12/30 01:56:58;;;;;;;;;;;9.00;86.40;;;;;;5110798;27;19923;-66
2023/12/30 01:59:32;;;;;;;;;;;9.00;86.40;;;;;;5109232;28;19931;-66
2023/12/30 02:02:12;;;;;;;;;;;9.00;86.40;;;;;;5111183;28;19923;-66
2023/12/30 02:04:46;;;;;;;;;;;9.00;86.40;;;;;;5089694;28;19938;-68
2023/12/30 02:07:19;;;;;;;;;;;9.00;86.30;;;;;;5086711;28;20297;-68
2023/12/30 02:09:54;;;;;;;;;;;9.00;86.30;;;;;;5072303;28;20742;-67
2023/12/30 02:12:21;;;;;;;;;;;9.00;86.30;;;;;;5088557;28;19936;-66
2023/12/30 02:14:54;;;;;;;;;;;9.00;86.30;;;;;;5110325;28;20004;-67
2023/12/30 02:17:27;;;;;;;;;;;8.90;86.20;;;;;;5109517;28;19985;-67
2023/12/30 02:20:10;;;;;;;;;;;8.90;86.30;;;;;;5085507;28;20389;-67
2023/12/30 02:22:46;;;;;;;;;;;8.90;86.10;;;;;;5106970;27;20455;-61
2023/12/30 02:25:19;;;;;;;;;;;8.90;86.20;;;;;;5087272;28;19978;-62
2023/12/30 02:27:52;;;;;;;;;;;8.90;86.10;;;;;;5109129;27;20031;-62
2023/12/30 02:30:25;;;;;;;;;;;8.90;86.10;;;;;;5109643;28;19955;-61
2023/12/30 02:32:58;;;;;;;;;;;8.80;86.00;;;;;;5110690;28;19924;-62
2023/12/30 02:35:31;;;;;;;;;;;8.80;85.90;;;;;;5108024;28;19930;-60
2023/12/30 02:38:06;;;;;;;;;;;8.80;85.80;;;;;;5104420;28;19928;-62
2023/12/30 02:40:40;;;;;;;;;;;8.80;85.80;;;;;;5070903;28;20383;-60
2023/12/30 02:43:13;;;;;;;;;;;8.80;85.90;;;;;;5084369;28;19924;-61
2023/12/30 02:45:46;;;;;;;;;;;8.80;85.80;;;;;;5109928;28;20076;-62
2023/12/30 02:48:19;;;;;;;;;;;8.80;85.80;;;;;;5109357;28;19932;-61
2023/12/30 02:50:52;;;;;;;;;;;8.80;85.70;;;;;;5086821;28;20389;-61
2023/12/30 02:53:26;;;;;;;;;;;8.80;85.70;;;;;;5110739;27;19924;-60
2023/12/30 02:56:00;;;;;;;;;;;8.70;85.70;;;;;;5109023;27;19935;-60
2023/12/30 02:58:34;;;;;;;;;;;8.80;85.60;;;;;;5108810;28;20500;-63
2023/12/30 03:01:08;;;;;;;;;;;8.80;85.60;;;;;;5108881;27;20343;-61
2023/12/30 03:03:41;;;;;;;;;;;8.80;85.60;;;;;;5108079;27;19928;-61
2023/12/30 03:06:15;;;;;;;;;;;8.80;85.50;;;;;;5086177;28;20014;-61
2023/12/30 03:08:49;;;;;;;;;;;8.80;85.50;;;;;;5108362;28;19981;-62
2023/12/30 03:11:23;;;;;;;;;;;8.80;85.50;;;;;;5108039;27;20018;-61
2023/12/30 03:13:57;;;;;;;;;;;8.80;85.40;;;;;;5075308;28;20498;-62
2023/12/30 03:16:30;;;;;;;;;;;8.80;85.40;;;;;;5069430;28;20039;-64
2023/12/30 03:19:03;;;;;;;;;;;8.80;85.30;;;;;;5108705;28;19928;-62
2023/12/30 03:21:36;;;;;;;;;;;8.80;85.50;;;;;;5106503;28;19965;-62
2023/12/30 03:24:10;;;;;;;;;;;8.80;85.40;;;;;;5107986;28;19927;-62
2023/12/30 03:26:45;;;;;;;;;;;8.80;85.40;;;;;;5087198;28;20023;-62
2023/12/30 03:29:18;;;;;;;;;;;8.80;85.40;;;;;;5083367;28;20453;-63
2023/12/30 03:31:53;;;;;;;;;;;8.90;85.30;;;;;;5085047;28;19928;-62
2023/12/30 03:34:26;;;;;;;;;;;8.90;85.30;;;;;;5086288;28;19959;-61
2023/12/30 03:37:01;;;;;;;;;;;8.90;85.20;;;;;;5087842;28;20341;-59
2023/12/30 03:39:35;;;;;;;;;;;8.90;85.20;;;;;;5085826;28;19981;-60
2023/12/30 03:42:08;;;;;;;;;;;8.80;85.30;;;;;;5084042;28;19924;-60
2023/12/30 03:44:42;;;;;;;;;;;8.80;85.20;;;;;;5088536;28;20449;-60
2023/12/30 03:47:15;;;;;;;;;;;8.80;85.30;;;;;;5086589;28;19950;-60
2023/12/30 03:49:48;;;;;;;;;;;8.80;85.40;;;;;;5083367;28;19923;-60
2023/12/30 03:52:21;;;;;;;;;;;8.80;85.40;;;;;;5106677;28;19970;-60
2023/12/30 03:54:56;;;;;;;;;;;8.80;85.50;;;;;;5091059;28;20495;-60
2023/12/30 03:57:29;;;;;;;;;;;8.80;85.40;;;;;;5089404;28;19931;-60
2023/12/30 04:00:03;;;;;;;;;;;8.80;85.50;;;;;;5085342;28;19931;-59
2023/12/30 04:02:39;;;;;;;;;;;8.70;85.50;;;;;;5088490;28;20018;-59
2023/12/30 04:05:12;;;;;;;;;;;8.70;85.60;;;;;;5087397;28;19969;-60
2023/12/30 04:07:39;;;;;;;;;;;8.70;85.50;;;;;;5086746;28;20003;-60
2023/12/30 04:10:14;;;;;;;;;;;8.70;85.60;;;;;;5088452;28;19924;-59
2023/12/30 04:12:48;;;;;;;;;;;8.70;85.60;;;;;;5073971;28;19924;-60
2023/12/30 04:15:22;;;;;;;;;;;8.60;85.70;;;;;;5071371;28;19924;-59
2023/12/30 04:17:55;;;;;;;;;;;8.70;85.70;;;;;;5080412;28;19928;-60
2023/12/30 04:20:28;;;;;;;;;;;8.60;85.80;;;;;;5081130;28;19928;-60
2023/12/30 04:23:01;;;;;;;;;;;8.70;85.90;;;;;;5087752;28;19928;-60
2023/12/30 04:25:36;;;;;;;;;;;8.60;85.90;;;;;;5080236;28;19935;-61
2023/12/30 04:28:09;;;;;;;;;;;8.70;85.90;;;;;;5085904;28;19974;-60
2023/12/30 04:30:42;;;;;;;;;;;8.60;86.00;;;;;;5103422;28;19936;-60
2023/12/30 04:33:15;;;;;;;;;;;8.60;86.00;;;;;;5105651;28;19935;-60
2023/12/30 04:35:48;;;;;;;;;;;8.60;86.10;;;;;;5105828;28;19924;-61
2023/12/30 04:38:21;;;;;;;;;;;8.60;86.10;;;;;;5090510;28;20401;-60
2023/12/30 04:40:56;;;;;;;;;;;8.60;86.10;;;;;;5106246;28;19932;-60
2023/12/30 04:43:29;;;;;;;;;;;8.70;86.10;;;;;;5090137;28;19973;-62
2023/12/30 04:46:02;;;;;;;;;;;8.60;86.20;;;;;;5108081;27;19923;-61
2023/12/30 04:48:35;;;;;;;;;;;8.60;86.30;;;;;;5076733;28;19931;-60
2023/12/30 04:51:08;;;;;;;;;;;8.60;86.20;;;;;;5105548;28;20413;-60
2023/12/30 04:53:41;;;;;;;;;;;8.60;86.30;;;;;;5107189;28;21436;-59
2023/12/30 04:56:16;;;;;;;;;;;8.70;86.30;;;;;;5103388;28;19931;-61
2023/12/30 04:58:50;;;;;;;;;;;8.70;86.10;;;;;;5107519;28;19928;-63
2023/12/30 05:01:24;;;;;;;;;;;8.70;86.10;;;;;;5067919;28;19931;-61
2023/12/30 05:03:57;;;;;;;;;;;8.70;86.20;;;;;;5100733;28;20317;-59
2023/12/30 05:06:24;;;;;;;;;;;8.70;86.10;;;;;;5083833;28;19923;-63
2023/12/30 05:08:58;;;;;;;;;;;8.70;86.10;;;;;;5105719;28;19923;-61
2023/12/30 05:11:32;;;;;;;;;;;8.70;86.20;;;;;;5106609;27;19959;-64
2023/12/30 05:14:06;;;;;;;;;;;8.70;86.10;;;;;;5107876;28;19928;-62
2023/12/30 05:16:43;;;;;;;;;;;8.70;86.10;;;;;;5106118;28;19946;-61
2023/12/30 05:19:16;;;;;;;;;;;8.70;86.10;;;;;;5105982;28;19959;-63
2023/12/30 05:21:51;;;;;;;;;;;8.70;86.10;;;;;;5107381;28;20050;-62
2023/12/30 05:24:24;;;;;;;;;;;8.70;86.00;;;;;;5106742;28;19959;-61
2023/12/30 05:26:58;;;;;;;;;;;8.70;86.00;;;;;;5106795;27;19984;-61
2023/12/30 05:29:33;;;;;;;;;;;8.70;86.00;;;;;;5106563;28;19924;-60
2023/12/30 05:32:06;;;;;;;;;;;8.70;86.10;;;;;;5108640;28;20409;-61
2023/12/30 05:34:39;;;;;;;;;;;8.70;86.10;;;;;;5106031;28;19924;-61
2023/12/30 05:37:12;;;;;;;;;;;8.70;86.20;;;;;;5107708;28;19946;-61
2023/12/30 05:39:45;;;;;;;;;;;8.70;86.10;;;;;;5108440;28;19924;-61
2023/12/30 05:42:19;;;;;;;;;;;8.70;86.30;;;;;;5106772;28;19924;-61
2023/12/30 05:44:53;;;;;;;;;;;8.70;86.30;;;;;;5108767;28;19932;-61
2023/12/30 05:47:26;;;;;;;;;;;8.80;86.20;;;;;;5110854;28;20015;-62
2023/12/30 05:49:59;;;;;;;;;;;8.70;86.30;;;;;;5110109;27;19981;-61
2023/12/30 05:52:32;;;;;;;;;;;8.70;86.30;;;;;;5109741;28;19927;-61
2023/12/30 05:55:05;;;;;;;;;;;8.80;86.30;;;;;;5110108;28;19935;-70
2023/12/30 05:57:40;;;;;;;;;;;8.80;86.30;;;;;;5111034;28;19934;-71
2023/12/30 06:00:15;;;;;;;;;;;8.80;86.30;;;;;;5109504;28;19935;-70
2023/12/30 06:02:49;;;;;;;;;;;8.70;86.40;;;;;;5109057;28;19924;-72
2023/12/30 06:05:22;;;;;;;;;;;8.80;86.40;;;;;;5110735;28;19947;-71
2023/12/30 06:07:55;;;;;;;;;;;8.70;86.40;;;;;;5111324;28;19973;-73
2023/12/30 06:10:28;;;;;;;;;;;8.70;86.40;;;;;;5108584;28;19977;-69
2023/12/30 06:13:02;;;;;;;;;;;8.70;86.40;;;;;;5109416;27;19973;-70
2023/12/30 06:15:36;;;;;;;;;;;8.70;86.50;;;;;;5110161;28;19927;-70
2023/12/30 06:18:09;;;;;;;;;;;8.70;86.40;;;;;;5110793;28;19932;-70
2023/12/30 06:20:43;;;;;;;;;;;8.80;86.40;;;;;;5109657;28;20027;-70
2023/12/30 06:23:16;;;;;;;;;;;8.80;86.50;;;;;;5108789;28;19924;-70
2023/12/30 06:25:49;;;;;;;;;;;8.70;86.60;;;;;;5111559;28;19927;-70
2023/12/30 06:28:26;;;;;;;;;;;8.70;86.60;;;;;;5109175;28;19930;-70
2023/12/30 06:30:59;;;;;;;;;;;8.70;86.60;;;;;;5110935;28;19981;-72
2023/12/30 06:33:32;;;;;;;;;;;8.70;86.60;;;;;;5110480;28;19928;-70
2023/12/30 06:36:19;;;;;;;;;;;8.60;86.60;;;;;;5108477;28;20358;-69
2023/12/30 06:38:52;;;;;;;;;;;8.60;86.70;;;;;;5110201;28;19983;-71
2023/12/30 06:41:25;;;;;;;;;;;8.60;86.70;;;;;;5108644;28;19928;-70
2023/12/30 06:43:59;;;;;;;;;;;8.60;86.70;;;;;;5103791;27;20286;-71
2023/12/30 06:46:33;;;;;;;;;;;8.60;86.70;;;;;;5109647;28;20370;-70
2023/12/30 06:49:07;;;;;;;;;;;8.60;86.80;;;;;;5110826;28;20465;-74
2023/12/30 06:51:43;;;;;;;;;;;8.60;86.70;;;;;;5105944;28;19976;-71
2023/12/30 06:54:16;;;;;;;;;;;8.50;86.80;;;;;;5091519;28;19928;-72
2023/12/30 06:56:50;;;;;;;;;;;8.50;86.90;;;;;;5089651;28;19947;-70
2023/12/30 06:59:25;;;;;;;;;;;8.50;86.90;;;;;;5090422;28;19928;-69
2023/12/30 07:01:59;;;;;;;;;;;8.50;86.90;;;;;;5090704;28;19946;-70
2023/12/30 07:04:32;;;;;;;;;;;8.50;86.80;;;;;;5090101;28;19928;-63
2023/12/30 07:07:05;;;;;;;;;;;8.50;86.90;;;;;;5089408;28;19928;-63
2023/12/30 07:09:39;;;;;;;;;;;8.50;86.80;;;;;;5089401;28;20039;-63
2023/12/30 07:12:13;;;;;;;;;;;8.50;86.90;;;;;;5088678;28;19959;-63
2023/12/30 07:14:48;;;;;;;;;;;8.50;86.90;;;;;;5064263;28;20010;-62
2023/12/30 07:17:21;;;;;;;;;;;8.50;86.90;;;;;;5089834;28;19924;-62
2023/12/30 07:19:56;;;;;;;;;;;8.50;87.00;;;;;;5087757;27;19928;-63
2023/12/30 07:22:29;;;;;;;;;;;8.50;87.10;;;;;;5088779;28;19934;-63
2023/12/30 07:25:02;;;;;;;;;;;8.50;87.10;;;;;;5087359;28;20007;-63
2023/12/30 07:27:35;;;;;;;;;;;8.50;87.10;;;;;;5086570;28;19928;-63
2023/12/30 07:30:10;;;;;;;;;;;8.50;87.10;;;;;;5089623;28;20025;-63
2023/12/30 07:32:43;;;;;;;;;;;8.50;87.10;;;;;;5088975;28;20007;-62
2023/12/30 07:35:16;;;;;;;;;;;8.50;87.00;;;;;;5085558;28;19927;-62
2023/12/30 07:37:49;;;;;;;;;;;8.50;87.10;;;;;;5088719;28;19924;-63
2023/12/30 07:40:22;;;;;;;;;;;8.50;87.20;;;;;;5086496;28;20290;-64
2023/12/30 07:42:55;;;;;;;;;;;8.50;87.10;;;;;;5087462;28;20018;-63
2023/12/30 07:45:29;;;;;;;;;;;8.50;87.10;;;;;;5085823;28;19924;-63
2023/12/30 07:48:03;;;;;;;;;;;8.40;87.20;;;;;;5088537;28;20383;-62
2023/12/30 07:50:36;;;;;;;;;;;8.50;87.20;;;;;;5086948;28;19951;-62
2023/12/30 07:53:09;;;;;;;;;;;8.50;87.10;;;;;;5086358;28;19969;-62
2023/12/30 07:55:42;;;;;;;;;;;8.50;87.20;;;;;;5086238;28;20017;-62
2023/12/30 07:58:15;;;;;;;;;;;8.60;87.20;;;;;;5086710;28;19939;-63
2023/12/30 08:00:49;;;;;;;;;;;8.60;87.10;;;;;;5109468;28;19924;-62
2023/12/30 08:03:23;;;;;;;;;;;8.50;87.10;;;;;;5107100;28;20465;-63
2023/12/30 08:05:56;;;;;;;;;;;8.60;87.20;;;;;;5106933;28;19997;-62
2023/12/30 08:08:29;;;;;;;;;;;8.60;87.20;;;;;;5107457;28;19923;-61
2023/12/30 08:11:02;;;;;;;;;;;8.50;87.20;;;;;;5108550;28;19959;-62
2023/12/30 08:13:35;;;;;;;;;;;8.60;87.20;;;;;;5107887;28;19939;-62
2023/12/30 08:16:09;;;;;;;;;;;8.50;87.20;;;;;;5102976;28;19998;-61
2023/12/30 08:18:44;;;;;;;;;;;8.50;87.30;;;;;;5108138;28;19930;-61
2023/12/30 08:21:17;;;;;;;;;;;8.50;87.30;;;;;;5106765;27;19930;-62
2023/12/30 08:23:50;;;;;;;;;;;8.50;87.20;;;;;;5107249;28;19928;-63
2023/12/30 08:26:23;;;;;;;;;;;8.50;87.10;;;;;;5108254;28;19931;-63
2023/12/30 08:28:56;;;;;;;;;;;8.50;87.10;;;;;;5108659;28;19986;-63
2023/12/30 08:31:34;;;;;;;;;;;8.50;87.10;;;;;;5105893;28;20026;-63
2023/12/30 08:34:07;;;;;;;;;;;8.50;87.10;;;;;;5106932;28;20290;-62
2023/12/30 08:36:40;;;;;;;;;;;8.60;87.10;;;;;;5106324;28;19934;-63
2023/12/30 08:39:13;;;;;;;;;;;8.50;87.20;;;;;;5093182;28;19924;-61
2023/12/30 08:41:46;;;;;;;;;;;8.60;87.30;;;;;;5105852;28;19931;-62
2023/12/30 08:44:19;;;;;;;;;;;8.60;87.30;;;;;;5101117;28;19931;-61
2023/12/30 08:46:53;;;;;;;;;;;8.60;87.30;;;;;;5087966;27;19930;-64
2023/12/30 08:49:27;;;;;;;;;;;8.60;87.10;;;;;;5104488;28;19935;-62
2023/12/30 08:52:00;;;;;;;;;;;8.60;87.00;;;;;;5105081;28;19928;-63
2023/12/30 08:54:33;;;;;;;;;;;8.70;87.10;;;;;;5089863;28;20402;-61
2023/12/30 08:57:06;;;;;;;;;;;8.70;86.90;;;;;;5101414;28;20378;-61
2023/12/30 08:59:40;;;;;;;;;;;8.70;86.90;;;;;;5091211;27;20383;-62
2023/12/30 09:02:15;;;;;;;;;;;8.70;86.80;;;;;;5106827;28;19932;-62
2023/12/30 09:04:48;;;;;;;;;;;8.70;86.70;;;;;;5097629;27;19959;-62
2023/12/30 09:07:21;;;;;;;;;;;8.80;86.70;;;;;;5083078;28;20693;-62
2023/12/30 09:09:54;;;;;;;;;;;8.80;86.70;;;;;;5106684;28;20473;-62
2023/12/30 09:12:27;;;;;;;;;;;8.80;86.70;;;;;;5107603;28;19934;-61
2023/12/30 09:15:00;;;;;;;;;;;8.90;86.50;;;;;;5107230;28;20059;-63
2023/12/30 09:17:35;;;;;;;;;;;8.90;86.50;;;;;;5107442;28;20461;-61
2023/12/30 09:20:09;;;;;;;;;;;9.00;86.30;;;;;;5110486;28;19935;-61
2023/12/30 09:22:42;;;;;;;;;;;9.00;86.30;;;;;;5110138;28;20788;-63
2023/12/30 09:25:15;;;;;;;;;;;9.00;86.20;;;;;;5112969;28;20378;-62
2023/12/30 09:27:48;;;;;;;;;;;9.10;86.10;;;;;;5111461;28;19924;-61
2023/12/30 09:30:21;;;;;;;;;;;9.10;86.10;;;;;;5111032;28;19931;-61
2023/12/30 09:33:02;;;;;;;;;;;9.10;86.00;;;;;;5105191;28;20022;-61
2023/12/30 09:35:35;;;;;;;;;;;9.20;85.90;;;;;;5103149;27;19928;-61
2023/12/30 09:38:08;;;;;;;;;;;9.20;85.90;;;;;;5112541;27;20439;-62
2023/12/30 09:40:41;;;;;;;;;;;9.10;86.00;;;;;;5109192;28;20401;-61
2023/12/30 09:43:14;;;;;;;;;;;9.20;86.00;;;;;;5111696;28;19979;-62
2023/12/30 09:45:48;;;;;;;;;;;9.20;86.00;;;;;;5109285;28;19931;-60
2023/12/30 09:48:24;;;;;;;;;;;9.20;86.10;;;;;;5110217;27;19996;-62
2023/12/30 09:50:57;;;;;;;;;;;9.20;86.10;;;;;;5110467;28;19923;-61
2023/12/30 09:53:30;;;;;;;;;;;9.30;86.10;;;;;;5109566;28;19930;-61
2023/12/30 09:56:04;;;;;;;;;;;9.30;86.00;;;;;;5110623;28;20295;-61
2023/12/30 09:58:38;;;;;;;;;;;9.30;86.10;;;;;;5110450;28;19940;-61
2023/12/30 10:01:12;;;;;;;;;;;9.40;86.00;;;;;;5108547;28;20007;-61
2023/12/30 10:03:47;;;;;;;;;;;9.40;86.00;;;;;;5106025;28;19935;-61
2023/12/30 10:06:21;;;;;;;;;;;9.40;85.90;;;;;;5092554;28;19928;-60
2023/12/30 10:08:55;;;;;;;;;;;9.50;86.00;;;;;;5093318;28;19930;-60
2023/12/30 10:11:28;;;;;;;;;;;9.60;85.90;;;;;;5092091;27;19928;-61
2023/12/30 10:14:02;;;;;;;;;;;9.60;86.00;;;;;;5093016;27;19928;-62
2023/12/30 10:16:36;;;;;;;;;;;9.60;86.00;;;;;;5103086;27;19986;-61
2023/12/30 10:19:11;;;;;;;;;;;9.60;85.90;;;;;;5108164;28;20014;-64
2023/12/30 10:21:44;;;;;;;;;;;9.70;85.90;;;;;;5109307;28;19973;-61
2023/12/30 10:24:17;;;;;;;;;;;9.70;85.70;;;;;;5100383;28;19934;-61
2023/12/30 10:26:50;;;;;;;;;;;9.70;85.80;;;;;;5105341;28;20366;-62
2023/12/30 10:29:23;;;;;;;;;;;9.70;85.60;;;;;;5109155;28;19924;-61
2023/12/30 10:32:24;;;;;;;;;;;9.70;85.70;;;;;;5110976;28;19934;-61
2023/12/30 10:34:59;;;;;;;;;;;9.80;85.60;;;;;;5103851;28;19938;-63
2023/12/30 10:37:39;;;;;;;;;;;9.80;85.50;;;;;;5109168;28;19963;-63
2023/12/30 10:40:12;;;;;;;;;;;9.90;85.50;;;;;;5109345;27;20336;-63
2023/12/30 10:42:45;;;;;;;;;;;9.90;85.40;;;;;;5109908;28;20325;-62
2023/12/30 10:45:19;;;;;;;;;;;9.90;85.30;;;;;;5109153;28;20359;-62
2023/12/30 10:47:53;;;;;;;;;;;9.90;85.40;;;;;;5111082;28;19927;-62
2023/12/30 10:50:28;;;;;;;;;;;10.00;85.30;;;;;;5109382;28;20379;-63
2023/12/30 10:53:03;;;;;;;;;;;10.00;85.10;;;;;;5110352;28;20405;-61
2023/12/30 10:55:37;;;;;;;;;;;10.10;85.00;;;;;;5109851;28;19935;-63
2023/12/30 10:58:13;;;;;;;;;;;10.10;84.80;;;;;;5109785;27;20026;-63
2023/12/30 11:00:49;;;;;;;;;;;10.20;84.60;;;;;;5110514;28;19932;-63
2023/12/30 11:03:23;;;;;;;;;;;10.20;84.50;;;;;;5108920;28;19932;-62
2023/12/30 11:06:01;;;;;;;;;;;10.20;84.30;;;;;;5110517;28;20286;-63
2023/12/30 11:08:34;;;;;;;;;;;10.30;84.20;;;;;;5108301;28;19934;-62
2023/12/30 11:11:07;;;;;;;;;;;10.30;84.20;;;;;;5110265;28;19927;-63
2023/12/30 11:13:41;;;;;;;;;;;10.30;83.90;;;;;;5110357;28;19934;-63
2023/12/30 11:16:15;;;;;;;;;;;10.30;83.80;;;;;;5106636;27;19936;-63
2023/12/30 11:18:49;;;;;;;;;;;10.30;83.60;;;;;;5107648;27;19923;-63
2023/12/30 11:21:37;;;;;;;;;;;10.40;83.60;;;;;;5106855;28;19928;-64
2023/12/30 11:24:11;;;;;;;;;;;10.40;83.20;;;;;;5111079;28;20018;-63
2023/12/30 11:26:45;;;;;;;;;;;10.50;83.10;;;;;;5110990;28;19935;-62
2023/12/30 11:29:19;;;;;;;;;;;10.50;83.10;;;;;;5107707;27;19924;-62
2023/12/30 11:31:53;;;;;;;;;;;10.50;82.90;;;;;;5109452;28;19927;-62
2023/12/30 11:34:27;;;;;;;;;;;10.50;83.00;;;;;;5109705;28;19928;-63
2023/12/30 11:37:03;;;;;;;;;;;10.60;82.80;;;;;;5110588;28;19924;-63
2023/12/30 11:39:40;;;;;;;;;;;10.60;82.70;;;;;;5087544;28;24278;-62
2023/12/30 11:42:20;;;;;;;;;;;10.60;82.40;;;;;;5097173;28;19927;-63
2023/12/30 11:45:00;;;;;;;;;;;10.60;82.40;;;;;;5110611;27;19923;-71
2023/12/30 11:47:33;;;;;;;;;;;10.60;82.20;;;;;;5107002;28;19968;-70
2023/12/30 11:50:08;;;;;;;;;;;10.60;82.10;;;;;;5100774;27;20429;-69
2023/12/30 11:52:47;;;;;;;;;;;10.60;82.10;;;;;;5109711;28;20014;-70
2023/12/30 11:55:22;;;;;;;;;;;10.70;81.90;;;;;;5105593;28;19924;-71
2023/12/30 11:57:56;;;;;;;;;;;10.70;81.90;;;;;;5088270;28;20007;-70
2023/12/30 12:00:28;;;;;;;;;;;10.60;81.80;;;;;;5107712;28;20405;-71
2023/12/30 12:03:01;;;;;;;;;;;10.70;81.60;;;;;;5107941;28;20285;-69
2023/12/30 12:05:34;;;;;;;;;;;10.70;81.40;;;;;;5108055;28;19923;-70
2023/12/30 12:08:11;;;;;;;;;;;10.70;81.50;;;;;;5108774;28;19977;-70
2023/12/30 12:10:44;;;;;;;;;;;10.70;81.30;;;;;;5108405;28;20340;-70
2023/12/30 12:13:20;;;;;;;;;;;10.70;81.30;;;;;;5105471;28;20390;-69
2023/12/30 12:15:54;;;;;;;;;;;10.80;81.40;;;;;;5109872;27;20342;-69
2023/12/30 12:18:27;;;;;;;;;;;10.90;81.30;;;;;;5091318;28;20264;-69
2023/12/30 12:21:03;;;;;;;;;;;10.80;81.40;;;;;;5109029;28;19924;-70
2023/12/30 12:23:38;;;;;;;;;;;10.80;81.10;;;;;;5109081;28;20011;-70
2023/12/30 12:26:11;;;;;;;;;;;10.90;81.00;;;;;;5108474;28;19936;-71
2023/12/30 12:28:44;;;;;;;;;;;10.80;80.90;;;;;;5108229;28;19932;-70
2023/12/30 12:31:18;;;;;;;;;;;10.90;80.80;;;;;;5108157;28;19928;-70
2023/12/30 12:33:51;;;;;;;;;;;10.90;80.70;;;;;;5108105;28;20028;-69
2023/12/30 12:36:24;;;;;;;;;;;11.00;80.60;;;;;;5107985;28;20355;-69
2023/12/30 12:38:59;;;;;;;;;;;11.00;80.50;;;;;;5107412;28;19924;-69
2023/12/30 12:41:35;;;;;;;;;;;11.10;80.40;;;;;;5109771;28;19928;-69
2023/12/30 12:44:08;;;;;;;;;;;11.10;80.10;;;;;;5108057;28;20407;-70
2023/12/30 12:46:41;;;;;;;;;;;11.00;80.20;;;;;;5107110;28;19935;-70
2023/12/30 12:49:17;;;;;;;;;;;11.10;80.00;;;;;;5091929;28;19928;-71
2023/12/30 12:51:50;;;;;;;;;;;11.10;79.80;;;;;;5090131;28;19928;-71
2023/12/30 12:54:25;;;;;;;;;;;11.00;79.80;;;;;;5093135;28;19928;-63
2023/12/30 12:56:58;;;;;;;;;;;11.10;79.70;;;;;;5094611;28;19931;-62
2023/12/30 12:59:31;;;;;;;;;;;11.00;79.60;;;;;;5095067;27;19924;-62
2023/12/30 13:02:05;;;;;;;;;;;11.00;79.40;;;;;;5094083;27;19935;-61
2023/12/30 13:04:41;;;;;;;;;;;11.00;79.70;;;;;;5090114;27;19928;-63
2023/12/30 13:07:14;;;;;;;;;;;10.90;79.70;;;;;;5093187;27;19977;-63
2023/12/30 13:09:53;;;;;;;;;;;10.90;79.80;;;;;;5094415;27;19934;-62
2023/12/30 13:12:26;;;;;;;;;;;10.90;79.80;;;;;;5092117;27;20398;-62
2023/12/30 13:14:59;;;;;;;;;;;10.80;79.80;;;;;;5095282;27;19978;-61
2023/12/30 13:17:32;;;;;;;;;;;10.80;79.80;;;;;;5096122;28;20046;-61
2023/12/30 13:20:06;;;;;;;;;;;10.80;79.90;;;;;;5109135;28;19934;-63
2023/12/30 13:22:39;;;;;;;;;;;10.80;79.90;;;;;;5094376;28;19932;-62
2023/12/30 13:25:14;;;;;;;;;;;10.80;79.80;;;;;;5090049;28;19924;-61
2023/12/30 13:27:47;;;;;;;;;;;10.80;79.80;;;;;;5090188;28;19947;-62
2023/12/30 13:30:22;;;;;;;;;;;10.80;79.70;;;;;;5090965;28;19947;-62
2023/12/30 13:32:56;;;;;;;;;;;10.80;79.60;;;;;;5109521;28;19928;-62
2023/12/30 13:35:34;;;;;;;;;;;10.90;79.50;;;;;;5111446;28;19931;-63
2023/12/30 13:38:12;;;;;;;;;;;10.80;79.50;;;;;;5110360;28;19939;-61
2023/12/30 13:40:47;;;;;;;;;;;10.80;79.50;;;;;;5109627;28;20374;-63
2023/12/30 13:43:24;;;;;;;;;;;10.80;79.40;;;;;;5089298;28;19954;-62
2023/12/30 13:46:11;;;;;;;;;;;10.80;79.40;;;;;;5111381;28;19928;-62
2023/12/30 13:49:22;;;;;;;;;;;10.90;79.50;;;;;;5110503;28;19939;-62
2023/12/30 13:51:47;;;;;;;;;;;10.90;79.40;;;;;;5099922;28;19932;-62
2023/12/30 13:54:22;;;;;;;;;;;10.90;79.20;;;;;;5103572;28;20382;-62
2023/12/30 13:57:11;;;;;;;;;;;10.80;79.40;;;;;;5110632;28;19931;-63
2023/12/30 13:59:46;;;;;;;;;;;10.70;79.50;;;;;;5110259;28;20027;-63
2023/12/30 14:02:21;;;;;;;;;;;10.70;79.80;;;;;;5091756;28;19930;-63
2023/12/30 14:04:57;;;;;;;;;;;10.60;79.80;;;;;;5089777;28;19928;-63
2023/12/30 14:07:27;;;;;;;;;;;10.60;80.00;;;;;;5097504;28;20363;-62
2023/12/30 14:10:01;;;;;;;;;;;10.60;80.30;;;;;;5111112;28;19935;-64
2023/12/30 14:12:37;;;;;;;;;;;10.50;80.20;;;;;;5109565;27;19955;-63
2023/12/30 14:15:12;;;;;;;;;;;10.50;80.50;;;;;;5108598;27;19924;-63
2023/12/30 14:17:45;;;;;;;;;;;10.50;80.50;;;;;;5108133;27;19924;-64
2023/12/30 14:20:18;;;;;;;;;;;10.50;80.40;;;;;;5109985;28;19931;-64
2023/12/30 14:22:51;;;;;;;;;;;10.50;80.40;;;;;;5107391;28;19935;-62
2023/12/30 14:25:24;;;;;;;;;;;10.50;80.50;;;;;;5109832;28;19924;-63
2023/12/30 14:28:01;;;;;;;;;;;10.50;80.50;;;;;;5106374;28;20419;-64
2023/12/30 14:30:35;;;;;;;;;;;10.50;80.30;;;;;;5093030;28;19976;-63
2023/12/30 14:33:08;;;;;;;;;;;10.50;80.10;;;;;;5092269;28;19928;-62
2023/12/30 14:35:41;;;;;;;;;;;10.50;80.00;;;;;;5092552;28;19932;-63
2023/12/30 14:38:08;;;;;;;;;;;10.40;80.00;;;;;;5092380;27;19928;-61
2023/12/30 14:40:48;;;;;;;;;;;10.40;80.20;;;;;;5091147;27;19973;-63
2023/12/30 14:43:23;;;;;;;;;;;10.50;80.20;;;;;;5092212;27;19969;-63
2023/12/30 14:45:56;;;;;;;;;;;10.40;80.20;;;;;;5087083;28;19928;-63
2023/12/30 14:48:29;;;;;;;;;;;10.40;80.10;;;;;;5088834;28;19928;-64
2023/12/30 14:51:03;;;;;;;;;;;10.40;80.20;;;;;;5108557;28;19950;-62
2023/12/30 14:53:36;;;;;;;;;;;10.30;80.10;;;;;;5108565;28;19927;-63
2023/12/30 14:56:10;;;;;;;;;;;10.20;80.20;;;;;;5110006;28;19924;-63
2023/12/30 14:58:44;;;;;;;;;;;10.20;80.20;;;;;;5111026;28;19967;-62
2023/12/30 15:01:17;;;;;;;;;;;10.20;80.50;;;;;;5101845;27;19927;-63
2023/12/30 15:03:51;;;;;;;;;;;10.10;80.50;;;;;;5110042;28;20018;-63
2023/12/30 15:06:26;;;;;;;;;;;10.10;80.50;;;;;;5111576;28;20006;-62